Time;durP1;ratioP1;P1;durP2;ratioP2;P2;SDS_P1;SDS_P2;PMS_P1;PMS_P2;Temp;Humidity;BMP_temperature;BMP_pressure;BME280_temperature;BME280_humidity;BME280_pressure;Samples;Min_cycle;Max_cycle;Signal;HPM_P1;HPM_P2
2023/08/07 00:00:12;;;;;;;7.22;3.97;;;15.00;99.90;;;;;;5019066;28;20036;-80
2023/08/07 00:02:38;;;;;;;8.63;3.75;;;15.00;99.90;;;;;;5033943;28;20138;-80
2023/08/07 00:05:05;;;;;;;8.10;3.70;;;15.10;99.90;;;;;;5017067;28;20039;-80
2023/08/07 00:07:30;;;;;;;7.38;4.03;;;15.10;99.90;;;;;;5035999;28;20045;-80
2023/08/07 00:09:56;;;;;;;7.80;3.75;;;15.10;99.90;;;;;;5035490;28;20095;-79
2023/08/07 00:12:22;;;;;;;9.93;4.30;;;15.10;99.90;;;;;;5029997;28;20045;-79
2023/08/07 00:14:50;;;;;;;9.75;4.30;;;15.10;99.90;;;;;;5015447;28;20052;-79
2023/08/07 00:17:16;;;;;;;7.85;4.07;;;15.10;99.90;;;;;;5031674;28;20046;-80
2023/08/07 00:19:41;;;;;;;7.05;3.78;;;15.10;99.90;;;;;;5028438;28;20113;-80
2023/08/07 00:22:07;;;;;;;9.52;4.43;;;15.20;99.90;;;;;;4998975;28;20037;-81
2023/08/07 00:24:32;;;;;;;9.75;4.93;;;15.10;99.90;;;;;;5048499;28;20046;-80
2023/08/07 00:26:58;;;;;;;7.57;4.15;;;15.20;99.90;;;;;;5034093;28;20068;-81
2023/08/07 00:29:23;;;;;;;7.63;4.47;;;15.20;99.90;;;;;;5018480;28;20536;-80
2023/08/07 00:31:49;;;;;;;7.53;3.92;;;15.20;99.90;;;;;;5017834;28;20042;-80
2023/08/07 00:34:15;;;;;;;8.88;4.75;;;15.20;99.90;;;;;;5016326;28;20049;-77
2023/08/07 00:36:40;;;;;;;9.77;4.70;;;15.30;99.90;;;;;;5016306;28;20046;-80
2023/08/07 00:39:07;;;;;;;8.65;4.38;;;15.20;99.90;;;;;;5015762;28;20037;-80
2023/08/07 00:41:33;;;;;;;7.72;4.00;;;15.20;99.90;;;;;;5012893;28;20053;-80
2023/08/07 00:43:58;;;;;;;8.32;3.85;;;15.20;99.90;;;;;;5033281;28;20037;-79
2023/08/07 00:46:24;;;;;;;8.57;4.45;;;15.30;99.90;;;;;;5017625;28;20465;-80
2023/08/07 00:48:52;;;;;;;8.25;4.25;;;15.30;99.90;;;;;;5018295;28;20033;-80
2023/08/07 00:51:17;;;;;;;7.55;3.90;;;15.30;99.90;;;;;;5033376;28;20077;-80
2023/08/07 00:53:43;;;;;;;7.38;4.28;;;15.20;99.90;;;;;;5034464;28;20095;-79
2023/08/07 00:56:09;;;;;;;7.90;4.50;;;15.20;99.90;;;;;;5035735;28;20394;-80
2023/08/07 00:58:36;;;;;;;8.48;4.53;;;15.20;99.90;;;;;;5026216;28;20068;-80
2023/08/07 01:01:01;;;;;;;8.38;4.25;;;15.20;99.90;;;;;;4999095;28;20129;-79
2023/08/07 01:03:27;;;;;;;7.90;4.07;;;15.20;99.90;;;;;;5034589;28;20456;-79
2023/08/07 01:05:52;;;;;;;7.90;3.90;;;15.10;99.90;;;;;;5035689;28;20113;-80
2023/08/07 01:08:20;;;;;;;9.95;4.00;;;15.00;99.90;;;;;;5011543;28;20376;-79
2023/08/07 01:10:48;;;;;;;9.02;4.78;;;15.00;99.90;;;;;;5014428;28;20042;-79
2023/08/07 01:13:25;;;;;;;7.95;4.03;;;15.00;99.90;;;;;;5002647;28;20037;-80
2023/08/07 01:15:55;;;;;;;8.15;3.85;;;15.00;99.90;;;;;;5015531;28;20041;-79
2023/08/07 01:18:23;;;;;;;11.25;4.53;;;15.00;99.90;;;;;;5034478;28;20045;-80
2023/08/07 01:20:48;;;;;;;8.05;4.10;;;14.90;99.90;;;;;;5033336;28;20481;-79
2023/08/07 01:23:14;;;;;;;7.97;4.13;;;14.90;99.90;;;;;;5015977;28;20056;-80
2023/08/07 01:25:39;;;;;;;7.97;3.88;;;14.90;99.90;;;;;;5025155;28;20397;-79
2023/08/07 01:28:50;;;;;;;8.13;3.70;;;14.80;99.90;;;;;;5030039;28;20111;-79
2023/08/07 01:31:20;;;;;;;8.98;3.83;;;14.80;99.90;;;;;;5012114;28;20042;-79
2023/08/07 01:34:03;;;;;;;7.63;3.80;;;14.80;99.90;;;;;;4982365;28;20410;-79
2023/08/07 01:36:30;;;;;;;8.18;3.60;;;14.80;99.90;;;;;;4984105;28;20054;-80
2023/08/07 01:39:00;;;;;;;8.05;3.95;;;14.80;99.90;;;;;;5024391;28;20103;-79
2023/08/07 01:41:26;;;;;;;8.30;3.47;;;14.70;99.90;;;;;;5033582;28;20059;-80
2023/08/07 01:43:52;;;;;;;8.80;3.80;;;14.70;99.90;;;;;;5022280;28;20041;-80
2023/08/07 01:46:19;;;;;;;8.27;3.40;;;14.70;99.90;;;;;;5014021;28;20038;-80
2023/08/07 01:48:44;;;;;;;7.55;3.70;;;14.70;99.90;;;;;;5016921;28;20040;-80
2023/08/07 01:51:10;;;;;;;7.60;3.30;;;14.60;99.90;;;;;;4997324;28;20128;-80
2023/08/07 01:53:35;;;;;;;7.45;3.40;;;14.70;99.90;;;;;;5021502;28;20037;-80
2023/08/07 01:56:01;;;;;;;7.57;3.22;;;14.60;99.90;;;;;;5033007;28;20090;-80
2023/08/07 01:58:26;;;;;;;9.32;2.90;;;14.60;99.90;;;;;;5034451;28;20189;-80
2023/08/07 02:00:53;;;;;;;7.47;3.20;;;14.70;99.90;;;;;;5026386;28;20089;-79
2023/08/07 02:03:19;;;;;;;6.38;3.20;;;14.60;99.90;;;;;;5015704;28;20065;-80
2023/08/07 02:05:46;;;;;;;8.20;3.00;;;14.60;99.90;;;;;;5014115;28;20038;-80
2023/08/07 02:08:12;;;;;;;9.60;3.40;;;14.60;99.90;;;;;;5016606;28;20050;-80
2023/08/07 02:10:37;;;;;;;7.60;3.60;;;14.70;99.90;;;;;;5001296;28;20038;-80
2023/08/07 02:13:03;;;;;;;9.57;3.20;;;14.60;99.90;;;;;;5013447;28;20529;-80
2023/08/07 02:15:28;;;;;;;8.68;3.67;;;14.60;99.90;;;;;;5013168;28;20046;-79
2023/08/07 02:17:54;;;;;;;7.47;2.75;;;14.60;99.90;;;;;;4998503;28;20403;-80
2023/08/07 02:20:20;;;;;;;9.85;3.28;;;14.60;99.90;;;;;;5033198;28;20512;-80
2023/08/07 02:22:45;;;;;;;12.60;2.95;;;14.70;99.90;;;;;;5032804;28;20041;-79
2023/08/07 02:25:11;;;;;;;7.18;2.58;;;14.60;99.90;;;;;;5033038;28;20033;-79
2023/08/07 02:27:36;;;;;;;8.18;2.55;;;14.60;99.90;;;;;;5032382;28;20572;-79
2023/08/07 02:30:03;;;;;;;13.73;2.88;;;14.60;99.90;;;;;;5025695;28;20037;-79
2023/08/07 02:32:29;;;;;;;11.90;3.03;;;14.50;99.90;;;;;;5016296;28;20132;-80
2023/08/07 02:34:55;;;;;;;11.25;2.97;;;14.50;99.90;;;;;;5014058;28;20050;-79
2023/08/07 02:37:21;;;;;;;13.38;2.80;;;14.50;99.90;;;;;;4995945;28;20149;-79
2023/08/07 02:39:46;;;;;;;9.05;2.80;;;14.50;99.90;;;;;;5030082;28;20041;-79
2023/08/07 02:42:12;;;;;;;12.63;3.15;;;14.50;99.90;;;;;;5030526;28;20195;-79
2023/08/07 02:44:38;;;;;;;9.45;2.80;;;14.50;99.90;;;;;;5021635;28;20077;-80
2023/08/07 02:47:04;;;;;;;11.80;2.70;;;14.50;99.90;;;;;;5012249;28;20044;-81
2023/08/07 02:49:29;;;;;;;11.07;2.40;;;14.50;99.90;;;;;;4996654;28;20042;-80
2023/08/07 02:51:55;;;;;;;13.63;2.90;;;14.50;99.90;;;;;;5012582;28;20049;-79
2023/08/07 02:54:20;;;;;;;11.55;2.88;;;14.50;99.90;;;;;;4996492;28;20046;-79
2023/08/07 02:56:46;;;;;;;10.95;2.70;;;14.50;99.90;;;;;;4996058;28;20494;-79
2023/08/07 02:59:12;;;;;;;11.30;2.45;;;14.50;99.90;;;;;;5024781;28;20101;-78
2023/08/07 03:01:37;;;;;;;8.02;2.95;;;14.50;99.90;;;;;;5032259;28;20065;-78
2023/08/07 03:04:03;;;;;;;11.90;2.80;;;14.50;99.90;;;;;;5031883;28;20044;-79
2023/08/07 03:06:28;;;;;;;11.85;2.67;;;14.40;99.90;;;;;;5031433;28;20044;-78
2023/08/07 03:08:55;;;;;;;12.68;2.60;;;14.40;99.90;;;;;;5032470;28;20048;-78
2023/08/07 03:11:20;;;;;;;11.77;2.75;;;14.40;99.90;;;;;;5015859;28;20040;-79
2023/08/07 03:13:46;;;;;;;10.88;2.83;;;14.40;99.90;;;;;;5014922;28;20033;-79
2023/08/07 03:16:12;;;;;;;11.90;3.00;;;14.40;99.90;;;;;;5020438;28;20506;-79
2023/08/07 03:18:37;;;;;;;8.93;2.45;;;14.50;99.90;;;;;;4995476;28;20403;-78
2023/08/07 03:21:03;;;;;;;7.97;2.45;;;14.50;99.90;;;;;;5012228;28;20034;-80
2023/08/07 03:23:29;;;;;;;12.80;2.80;;;14.60;99.90;;;;;;5018584;28;20052;-79
2023/08/07 03:26:09;;;;;;;9.70;2.50;;;14.60;99.90;;;;;;5021483;28;20038;-79
2023/08/07 03:28:35;;;;;;;9.20;2.63;;;14.60;99.90;;;;;;5012228;28;20046;-79
2023/08/07 03:31:01;;;;;;;10.30;2.60;;;14.70;99.90;;;;;;5012112;28;20033;-80
2023/08/07 03:33:27;;;;;;;14.18;2.83;;;14.60;99.90;;;;;;5023741;28;20060;-79
2023/08/07 03:35:53;;;;;;;13.82;3.10;;;14.60;99.90;;;;;;5021384;28;20041;-79
2023/08/07 03:38:18;;;;;;;10.90;2.42;;;14.60;99.90;;;;;;5011921;28;20498;-79
2023/08/07 03:40:44;;;;;;;12.07;2.85;;;14.60;99.90;;;;;;4995966;28;20030;-79
2023/08/07 03:43:10;;;;;;;9.98;2.25;;;14.60;99.90;;;;;;5013789;28;20073;-79
2023/08/07 03:45:36;;;;;;;9.35;2.97;;;14.50;99.90;;;;;;5011954;28;20041;-79
2023/08/07 03:48:02;;;;;;;10.82;2.90;;;14.50;99.90;;;;;;5014935;28;20045;-79
2023/08/07 03:50:29;;;;;;;10.15;2.45;;;14.50;99.90;;;;;;5014402;28;20045;-79
2023/08/07 03:52:55;;;;;;;11.10;3.08;;;14.50;99.90;;;;;;5033011;28;20041;-78
2023/08/07 03:55:21;;;;;;;10.23;2.35;;;14.50;99.90;;;;;;5031862;28;20049;-79
2023/08/07 03:57:46;;;;;;;9.93;2.92;;;14.50;99.90;;;;;;5014551;28;20051;-79
2023/08/07 04:00:13;;;;;;;9.88;2.90;;;14.50;99.90;;;;;;5026577;28;20034;-79
2023/08/07 04:02:38;;;;;;;11.07;3.17;;;14.50;99.90;;;;;;5001671;28;20038;-79
2023/08/07 04:05:04;;;;;;;11.02;2.95;;;14.50;99.90;;;;;;5031737;28;20040;-79
2023/08/07 04:07:30;;;;;;;9.80;2.55;;;14.50;99.90;;;;;;5031564;28;20038;-79
2023/08/07 04:09:55;;;;;;;14.10;2.90;;;14.50;99.90;;;;;;5028328;28;20046;-79
2023/08/07 04:12:21;;;;;;;7.90;2.40;;;14.50;99.90;;;;;;5013054;28;20072;-79
2023/08/07 04:14:46;;;;;;;8.95;2.70;;;14.60;99.90;;;;;;5011561;28;20033;-79
2023/08/07 04:17:12;;;;;;;9.60;2.70;;;14.70;99.90;;;;;;5014119;28;20077;-79
2023/08/07 04:19:38;;;;;;;9.18;2.40;;;14.80;99.90;;;;;;5015315;28;20036;-79
2023/08/07 04:22:03;;;;;;;7.13;2.28;;;14.80;99.90;;;;;;5034200;28;20065;-79
2023/08/07 04:24:29;;;;;;;8.85;2.42;;;14.80;99.90;;;;;;5035263;28;20367;-79
2023/08/07 04:26:55;;;;;;;9.23;2.25;;;14.80;99.90;;;;;;5018340;28;20122;-79
2023/08/07 04:29:20;;;;;;;7.25;2.10;;;14.80;99.90;;;;;;5016553;28;20045;-79
2023/08/07 04:31:46;;;;;;;6.60;2.30;;;14.80;99.90;;;;;;5017892;28;20402;-79
2023/08/07 04:34:12;;;;;;;7.05;2.10;;;14.90;99.90;;;;;;5015045;28;20060;-79
2023/08/07 04:36:38;;;;;;;8.57;2.35;;;14.90;99.90;;;;;;5015200;28;20449;-78
2023/08/07 04:39:03;;;;;;;9.18;2.22;;;14.90;99.90;;;;;;5017657;28;20120;-78
2023/08/07 04:41:29;;;;;;;10.77;2.30;;;14.90;99.90;;;;;;5021487;28;20034;-79
2023/08/07 04:43:54;;;;;;;8.68;2.30;;;15.00;99.90;;;;;;5014873;28;20064;-79
2023/08/07 04:46:20;;;;;;;8.95;2.53;;;14.90;99.90;;;;;;5015159;28;20068;-79
2023/08/07 04:48:47;;;;;;;7.95;2.30;;;15.00;99.90;;;;;;5016239;28;20038;-79
2023/08/07 04:51:13;;;;;;;8.32;2.45;;;15.00;99.90;;;;;;5025757;28;20068;-79
2023/08/07 04:53:38;;;;;;;10.07;2.60;;;15.00;99.90;;;;;;5035858;28;20034;-79
2023/08/07 04:56:04;;;;;;;10.82;2.80;;;14.90;99.90;;;;;;5035807;28;20087;-79
2023/08/07 04:58:29;;;;;;;11.55;3.22;;;15.00;99.90;;;;;;5033251;28;20109;-79
2023/08/07 05:00:56;;;;;;;10.85;3.15;;;15.00;99.90;;;;;;5032928;28;20037;-79
2023/08/07 05:03:22;;;;;;;11.23;3.22;;;15.00;99.90;;;;;;5016848;28;20068;-79
2023/08/07 05:05:47;;;;;;;9.80;2.70;;;15.10;99.90;;;;;;5016957;28;20033;-79
2023/08/07 05:08:13;;;;;;;9.60;2.67;;;15.10;99.90;;;;;;5034999;28;20449;-79
2023/08/07 05:10:38;;;;;;;12.35;3.13;;;15.10;99.90;;;;;;5009710;28;20093;-78
2023/08/07 05:13:04;;;;;;;11.70;2.97;;;15.10;99.90;;;;;;5014645;28;20046;-78
2023/08/07 05:15:30;;;;;;;9.55;2.90;;;15.20;99.90;;;;;;5014663;28;20494;-78
2023/08/07 05:17:56;;;;;;;8.77;2.58;;;15.20;99.90;;;;;;4999363;28;20046;-78
2023/08/07 05:20:22;;;;;;;10.63;2.72;;;15.20;99.90;;;;;;5034629;28;20401;-78
2023/08/07 05:22:48;;;;;;;8.73;2.60;;;15.20;99.90;;;;;;5034337;28;20039;-79
2023/08/07 05:25:16;;;;;;;12.23;3.63;;;15.10;99.90;;;;;;5035267;28;20045;-79
2023/08/07 05:27:45;;;;;;;10.10;2.38;;;15.20;99.90;;;;;;5016465;28;20092;-79
2023/08/07 05:30:12;;;;;;;9.38;2.47;;;15.10;99.90;;;;;;5015010;28;20041;-79
2023/08/07 05:32:38;;;;;;;10.68;2.97;;;15.20;99.90;;;;;;5028401;28;20048;-79
2023/08/07 05:35:05;;;;;;;10.02;3.00;;;15.10;99.90;;;;;;5000064;28;20046;-79
2023/08/07 05:37:31;;;;;;;11.75;3.25;;;15.20;99.90;;;;;;4998055;28;20065;-79
2023/08/07 05:39:57;;;;;;;10.02;2.85;;;15.20;99.90;;;;;;5033587;28;20493;-79
2023/08/07 05:42:23;;;;;;;12.68;3.22;;;15.20;99.90;;;;;;5000757;28;20063;-79
2023/08/07 05:44:48;;;;;;;10.82;2.85;;;15.20;99.90;;;;;;5016660;28;20035;-79
2023/08/07 05:47:14;;;;;;;10.27;3.47;;;15.10;99.90;;;;;;5017105;28;20490;-79
2023/08/07 05:49:40;;;;;;;10.18;3.08;;;15.30;99.90;;;;;;5033490;28;20125;-79
2023/08/07 05:52:06;;;;;;;13.85;3.50;;;15.30;99.90;;;;;;5000824;28;20042;-78
2023/08/07 05:54:31;;;;;;;12.90;3.28;;;15.20;99.90;;;;;;4997773;28;20029;-79
2023/08/07 05:56:57;;;;;;;12.85;3.08;;;15.20;99.90;;;;;;5017899;28;20045;-79
2023/08/07 05:59:22;;;;;;;13.50;3.95;;;15.30;99.90;;;;;;5013753;28;20049;-79
2023/08/07 06:01:48;;;;;;;16.95;4.18;;;15.40;99.90;;;;;;5024747;28;20038;-79
2023/08/07 06:04:14;;;;;;;13.82;4.25;;;15.40;99.90;;;;;;5016831;28;20042;-79
2023/08/07 06:06:40;;;;;;;13.95;3.63;;;15.50;99.90;;;;;;5033293;28;20037;-79
2023/08/07 06:09:06;;;;;;;13.77;3.63;;;15.60;99.90;;;;;;5032289;28;20033;-79
2023/08/07 06:11:32;;;;;;;13.65;3.35;;;15.60;99.90;;;;;;5021870;28;20049;-79
2023/08/07 06:13:58;;;;;;;13.90;3.85;;;15.70;99.90;;;;;;5013523;28;20046;-78
2023/08/07 06:16:24;;;;;;;12.57;3.88;;;15.70;99.90;;;;;;5013507;28;20525;-79
2023/08/07 06:18:50;;;;;;;12.15;3.70;;;15.70;99.90;;;;;;5024032;28;20053;-79
2023/08/07 06:21:15;;;;;;;9.45;3.08;;;15.70;99.90;;;;;;5023408;28;20049;-78
2023/08/07 06:23:42;;;;;;;10.65;2.80;;;15.60;99.90;;;;;;5019595;28;20045;-78
2023/08/07 06:26:08;;;;;;;9.93;2.60;;;15.60;99.90;;;;;;5029139;28;20486;-79
2023/08/07 06:28:36;;;;;;;10.43;3.03;;;15.60;99.90;;;;;;5034195;28;20117;-79
2023/08/07 06:31:09;;;;;;;12.90;2.63;;;15.50;99.90;;;;;;5014477;28;20033;-79
2023/08/07 06:33:35;;;;;;;9.73;2.60;;;15.50;99.90;;;;;;5032727;28;20081;-79
2023/08/07 06:36:02;;;;;;;10.95;2.65;;;15.50;99.90;;;;;;5024202;28;20049;-80
2023/08/07 06:38:28;;;;;;;12.88;2.72;;;15.40;99.90;;;;;;5016200;28;20038;-80
2023/08/07 06:40:53;;;;;;;13.90;3.33;;;15.50;99.90;;;;;;5009499;28;20034;-80
2023/08/07 06:43:19;;;;;;;10.93;2.90;;;15.50;99.90;;;;;;5023097;28;20098;-79
2023/08/07 06:45:54;;;;;;;10.07;2.92;;;15.50;99.90;;;;;;5008131;28;20080;-79
2023/08/07 06:48:20;;;;;;;12.45;3.15;;;15.40;99.90;;;;;;5024657;28;20037;-79
2023/08/07 06:50:50;;;;;;;11.02;3.65;;;15.40;99.90;;;;;;5029040;28;20517;-78
2023/08/07 06:53:16;;;;;;;9.77;2.63;;;15.40;99.90;;;;;;5005676;28;20476;-78
2023/08/07 06:55:42;;;;;;;10.02;2.55;;;15.40;99.90;;;;;;5007769;28;20092;-78
2023/08/07 06:58:08;;;;;;;9.35;2.67;;;15.50;99.90;;;;;;5025172;28;20394;-78
2023/08/07 07:00:35;;;;;;;12.68;3.38;;;15.50;99.90;;;;;;4998137;28;20033;-79
2023/08/07 07:03:01;;;;;;;9.60;2.92;;;15.50;99.90;;;;;;5019109;28;20030;-78
2023/08/07 07:05:27;;;;;;;11.20;2.95;;;15.40;99.90;;;;;;5027790;28;20498;-79
2023/08/07 07:07:52;;;;;;;11.98;2.70;;;15.50;99.90;;;;;;5013447;28;20126;-79
2023/08/07 07:10:18;;;;;;;9.98;3.33;;;15.50;99.90;;;;;;5024784;28;20076;-79
2023/08/07 07:12:43;;;;;;;12.82;3.25;;;15.50;99.90;;;;;;5037276;28;20033;-79
2023/08/07 07:15:09;;;;;;;10.20;2.60;;;15.60;99.90;;;;;;5013417;28;20546;-79
2023/08/07 07:17:35;;;;;;;9.93;2.47;;;15.70;99.90;;;;;;5014765;28;20038;-79
2023/08/07 07:20:00;;;;;;;8.80;2.97;;;15.70;99.90;;;;;;5023980;28;20038;-79
2023/08/07 07:22:28;;;;;;;11.50;2.97;;;15.80;99.90;;;;;;5019776;28;20038;-79
2023/08/07 07:24:54;;;;;;;10.80;2.63;;;15.80;99.90;;;;;;5013193;28;20037;-79
2023/08/07 07:27:22;;;;;;;10.02;3.05;;;15.90;99.90;;;;;;5025784;28;20530;-78
2023/08/07 07:29:50;;;;;;;9.38;1.85;;;15.90;99.90;;;;;;5024290;28;20041;-79
2023/08/07 07:32:16;;;;;;;11.75;2.60;;;15.90;99.90;;;;;;5027824;28;20124;-78
2023/08/07 07:34:42;;;;;;;12.63;2.67;;;16.00;99.90;;;;;;5014493;28;20038;-78
2023/08/07 07:37:07;;;;;;;10.35;2.38;;;15.80;99.90;;;;;;5027509;28;20467;-77
2023/08/07 07:39:34;;;;;;;8.10;2.08;;;15.80;99.90;;;;;;5013202;28;20045;-78
2023/08/07 07:42:00;;;;;;;9.05;1.88;;;15.80;99.90;;;;;;5028035;28;20041;-78
2023/08/07 07:44:25;;;;;;;10.85;1.90;;;15.80;99.90;;;;;;5028924;28;20030;-78
2023/08/07 07:46:51;;;;;;;8.15;2.13;;;15.80;99.90;;;;;;5026503;28;20038;-78
2023/08/07 07:49:16;;;;;;;7.72;2.25;;;15.80;99.90;;;;;;5024403;28;20075;-78
2023/08/07 07:51:44;;;;;;;11.73;2.60;;;15.80;99.90;;;;;;5028439;28;20045;-79
2023/08/07 07:54:10;;;;;;;6.55;2.30;;;15.70;99.90;;;;;;5004972;28;20052;-78
2023/08/07 07:56:36;;;;;;;8.77;2.72;;;15.50;99.90;;;;;;5018444;28;20081;-79
2023/08/07 07:59:01;;;;;;;9.60;2.25;;;15.60;99.90;;;;;;5023122;28;20065;-78
2023/08/07 08:01:28;;;;;;;8.65;2.22;;;15.60;99.90;;;;;;5030690;28;20034;-79
2023/08/07 08:03:53;;;;;;;7.68;2.45;;;15.60;99.90;;;;;;5030631;28;20033;-78
2023/08/07 08:06:19;;;;;;;9.45;2.67;;;15.60;99.90;;;;;;5034795;28;20456;-78
2023/08/07 08:08:45;;;;;;;11.85;3.33;;;15.50;99.90;;;;;;5021863;28;20069;-78
2023/08/07 08:11:10;;;;;;;10.70;2.10;;;15.50;99.90;;;;;;5026701;28;20049;-78
2023/08/07 08:13:38;;;;;;;9.43;2.92;;;15.60;99.90;;;;;;5014796;28;20046;-78
2023/08/07 08:16:04;;;;;;;10.13;2.88;;;15.70;99.90;;;;;;5033770;28;20042;-78
2023/08/07 08:18:30;;;;;;;7.35;2.28;;;15.70;99.90;;;;;;5030190;28;20410;-78
2023/08/07 08:20:56;;;;;;;7.70;2.22;;;15.70;99.90;;;;;;5034849;28;20394;-78
2023/08/07 08:23:21;;;;;;;11.13;3.05;;;15.60;99.90;;;;;;5029736;28;20417;-76
2023/08/07 08:25:48;;;;;;;7.90;3.00;;;15.60;99.90;;;;;;5017008;28;20038;-76
2023/08/07 08:28:14;;;;;;;9.45;2.47;;;15.60;99.90;;;;;;5016214;28;20061;-77
2023/08/07 08:30:39;;;;;;;8.45;2.85;;;15.60;99.90;;;;;;5034672;28;20049;-78
2023/08/07 08:33:05;;;;;;;12.88;2.80;;;15.60;99.90;;;;;;5032730;28;20060;-77
2023/08/07 08:35:31;;;;;;;5.90;2.08;;;15.60;99.90;;;;;;5023192;28;20135;-78
2023/08/07 08:37:57;;;;;;;8.85;2.72;;;15.60;99.90;;;;;;5014087;28;20095;-77
2023/08/07 08:40:24;;;;;;;12.55;3.25;;;15.60;99.90;;;;;;5026752;28;20486;-75
2023/08/07 08:42:51;;;;;;;11.40;3.03;;;15.60;99.90;;;;;;5030247;28;20030;-76
2023/08/07 08:45:18;;;;;;;9.75;2.40;;;15.60;99.90;;;;;;5032944;28;20065;-74
2023/08/07 08:47:46;;;;;;;11.07;3.08;;;15.60;99.90;;;;;;5032224;28;20045;-80
2023/08/07 08:50:14;;;;;;;9.82;3.38;;;15.60;99.90;;;;;;5029121;28;20070;-80
2023/08/07 08:52:44;;;;;;;12.25;3.17;;;15.60;99.90;;;;;;5026031;28;20120;-79
2023/08/07 08:55:12;;;;;;;15.43;3.50;;;15.60;99.90;;;;;;5029347;28;20041;-79
2023/08/07 08:57:39;;;;;;;9.90;2.92;;;15.60;99.90;;;;;;5033646;28;20385;-79
2023/08/07 09:00:15;;;;;;;13.90;3.72;;;15.70;99.90;;;;;;5031855;28;20042;-80
2023/08/07 09:02:42;;;;;;;12.60;3.40;;;15.80;99.90;;;;;;5004411;28;20063;-79
2023/08/07 09:05:09;;;;;;;10.95;3.03;;;16.00;99.90;;;;;;5029720;28;20040;-77
2023/08/07 09:07:35;;;;;;;14.55;2.83;;;16.10;99.90;;;;;;5017094;28;20044;-77
2023/08/07 09:10:03;;;;;;;16.17;3.38;;;16.30;99.90;;;;;;5026762;28;20069;-77
2023/08/07 09:12:34;;;;;;;17.15;3.17;;;16.50;99.90;;;;;;5013024;28;20072;-79
2023/08/07 09:15:03;;;;;;;11.88;3.25;;;16.60;99.90;;;;;;5024993;28;20040;-79
2023/08/07 09:17:31;;;;;;;12.30;2.78;;;16.70;99.90;;;;;;5010245;28;20088;-79
2023/08/07 09:19:57;;;;;;;17.08;5.63;;;17.00;99.90;;;;;;5020567;28;20048;-79
2023/08/07 09:22:22;;;;;;;9.40;2.33;;;17.00;99.90;;;;;;5031618;28;20038;-79
2023/08/07 09:24:49;;;;;;;9.90;2.28;;;17.00;99.90;;;;;;5032839;28;20091;-79
2023/08/07 09:27:15;;;;;;;8.73;2.22;;;17.00;99.90;;;;;;5028754;28;20053;-80
2023/08/07 09:29:41;;;;;;;10.65;2.70;;;17.10;99.90;;;;;;5008519;28;20057;-79
2023/08/07 09:32:08;;;;;;;13.13;2.70;;;17.20;99.90;;;;;;5014997;28;20540;-79
2023/08/07 09:34:34;;;;;;;12.63;2.70;;;17.20;99.90;;;;;;5033069;28;20088;-79
2023/08/07 09:36:59;;;;;;;6.55;1.90;;;17.30;99.90;;;;;;5029514;28;20064;-79
2023/08/07 09:39:25;;;;;;;10.15;2.00;;;17.40;99.90;;;;;;5027399;28;20042;-80
2023/08/07 09:41:52;;;;;;;8.40;2.28;;;17.40;99.90;;;;;;5028044;28;20061;-80
2023/08/07 09:44:17;;;;;;;8.55;2.30;;;17.40;99.90;;;;;;5028356;28;20512;-80
2023/08/07 09:46:44;;;;;;;9.07;2.30;;;17.50;99.90;;;;;;5026227;28;20046;-80
2023/08/07 09:49:10;;;;;;;9.43;2.13;;;17.60;99.90;;;;;;5027751;28;20034;-80
2023/08/07 09:51:47;;;;;;;13.77;2.80;;;17.40;99.90;;;;;;5031826;28;20116;-80
2023/08/07 09:54:13;;;;;;;9.57;2.70;;;17.40;99.90;;;;;;5001411;28;20042;-81
2023/08/07 09:56:40;;;;;;;10.15;2.78;;;17.20;99.90;;;;;;5013437;28;20083;-81
2023/08/07 09:59:07;;;;;;;10.13;2.30;;;17.10;99.90;;;;;;5023439;28;20108;-81
2023/08/07 10:01:36;;;;;;;10.02;3.13;;;17.10;99.90;;;;;;5010015;28;20045;-81
2023/08/07 10:04:01;;;;;;;11.43;2.80;;;17.10;99.90;;;;;;5023636;28;20038;-80
2023/08/07 10:06:27;;;;;;;11.38;2.60;;;17.20;99.90;;;;;;5023851;28;20375;-81
2023/08/07 10:08:54;;;;;;;10.40;2.50;;;17.30;99.90;;;;;;5016174;28;20043;-82
2023/08/07 10:11:21;;;;;;;9.77;2.25;;;17.50;99.90;;;;;;5022241;28;20042;-81
2023/08/07 10:13:47;;;;;;;9.55;2.70;;;17.50;99.90;;;;;;5020207;28;20040;-79
2023/08/07 10:16:13;;;;;;;9.80;2.45;;;17.30;99.90;;;;;;5015446;28;20379;-81
2023/08/07 10:18:39;;;;;;;8.50;2.35;;;17.00;99.90;;;;;;5031235;28;20076;-83
2023/08/07 10:21:06;;;;;;;9.48;2.80;;;16.90;99.90;;;;;;5014426;28;20069;-81
2023/08/07 10:23:35;;;;;;;10.85;2.78;;;16.90;99.90;;;;;;5031363;28;20107;-81
2023/08/07 10:26:03;;;;;;;10.38;2.40;;;16.80;99.90;;;;;;5022860;28;20034;-80
2023/08/07 10:28:30;;;;;;;11.13;2.53;;;16.70;99.90;;;;;;5028990;28;20338;-77
2023/08/07 10:30:57;;;;;;;8.88;2.28;;;16.80;99.90;;;;;;5032905;28;20045;-78
2023/08/07 10:33:24;;;;;;;10.10;2.50;;;16.80;99.90;;;;;;5010360;28;20076;-76
2023/08/07 10:35:52;;;;;;;11.25;2.70;;;16.90;99.90;;;;;;5014087;28;20494;-76
2023/08/07 10:38:22;;;;;;;10.68;2.65;;;16.80;99.90;;;;;;5020267;28;20426;-76
2023/08/07 10:41:06;;;;;;;7.45;1.90;;;16.80;99.90;;;;;;5043503;28;20037;-79
2023/08/07 10:43:40;;;;;;;11.50;2.78;;;16.80;99.90;;;;;;5030424;28;20072;-85
2023/08/07 10:46:09;;;;;;;15.93;2.78;;;16.80;99.90;;;;;;5025576;28;20095;-85
2023/08/07 10:48:42;;;;;;;12.35;2.58;;;16.80;99.90;;;;;;5004836;28;20073;-85
2023/08/07 10:51:08;;;;;;;9.25;2.47;;;16.90;99.90;;;;;;4996463;28;20557;-79
2023/08/07 10:53:44;;;;;;;10.05;2.78;;;16.80;99.90;;;;;;5014002;28;20305;-79
2023/08/07 10:56:14;;;;;;;14.10;2.88;;;16.80;99.90;;;;;;5025485;28;20041;-76
2023/08/07 10:58:41;;;;;;;12.10;2.63;;;16.80;99.90;;;;;;5012304;28;20087;-73
2023/08/07 11:01:20;;;;;;;8.50;2.40;;;16.90;99.90;;;;;;5031586;28;20079;-75
2023/08/07 11:03:52;;;;;;;9.38;2.25;;;17.10;99.90;;;;;;5023194;28;20053;-77
2023/08/07 11:06:22;;;;;;;8.48;2.28;;;17.30;99.90;;;;;;5012480;28;20117;-77
2023/08/07 11:08:48;;;;;;;11.50;3.10;;;17.20;99.90;;;;;;5027819;28;20077;-79
2023/08/07 11:11:14;;;;;;;8.05;2.05;;;17.20;99.90;;;;;;5031595;28;20035;-80
2023/08/07 11:13:39;;;;;;;6.90;1.90;;;17.20;99.90;;;;;;5015684;28;20552;-82
2023/08/07 11:16:06;;;;;;;11.82;1.90;;;17.20;99.90;;;;;;5002597;28;20045;-80
2023/08/07 11:18:32;;;;;;;9.77;1.95;;;17.20;99.90;;;;;;4995736;28;20042;-81
2023/08/07 11:20:58;;;;;;;7.80;1.95;;;17.20;99.90;;;;;;5020990;28;20441;-81
2023/08/07 11:23:25;;;;;;;4.93;1.50;;;17.40;99.90;;;;;;5014974;28;20049;-80
2023/08/07 11:25:51;;;;;;;6.47;1.70;;;17.40;99.90;;;;;;5015127;28;20136;-80
2023/08/07 11:28:21;;;;;;;5.68;1.75;;;17.30;99.90;;;;;;5015362;28;20098;-81
2023/08/07 11:30:50;;;;;;;4.50;1.50;;;17.20;99.90;;;;;;5031245;28;20056;-80
2023/08/07 11:33:28;;;;;;;7.30;2.00;;;17.30;99.90;;;;;;5028441;28;20401;-80
2023/08/07 11:35:54;;;;;;;6.80;2.08;;;17.50;99.90;;;;;;4996349;28;20052;-80
2023/08/07 11:38:37;;;;;;;7.38;2.00;;;17.40;99.90;;;;;;5029924;28;20414;-81
2023/08/07 11:41:05;;;;;;;5.07;1.73;;;17.30;99.90;;;;;;5026244;28;20374;-81
2023/08/07 11:43:32;;;;;;;5.65;1.73;;;17.30;99.90;;;;;;5031108;28;20041;-81
2023/08/07 11:46:00;;;;;;;6.15;2.10;;;17.20;99.90;;;;;;5024080;28;20042;-81
2023/08/07 11:48:30;;;;;;;6.47;2.20;;;17.10;99.90;;;;;;5019251;28;20045;-81
2023/08/07 11:50:57;;;;;;;7.25;1.80;;;17.10;99.90;;;;;;5026393;28;20045;-81
2023/08/07 11:53:27;;;;;;;9.05;2.03;;;17.10;99.90;;;;;;5018603;28;20049;-81
2023/08/07 11:55:55;;;;;;;10.65;2.30;;;17.20;99.90;;;;;;5014361;28;20048;-81
2023/08/07 11:58:22;;;;;;;6.90;2.03;;;17.30;99.90;;;;;;5020439;28;20049;-81
2023/08/07 12:00:48;;;;;;;6.47;2.05;;;17.40;99.90;;;;;;5022681;28;20367;-81
2023/08/07 12:03:29;;;;;;;11.35;2.20;;;17.30;99.90;;;;;;5030145;28;20048;-82
2023/08/07 12:06:01;;;;;;;9.60;2.17;;;17.30;99.90;;;;;;5014101;28;20494;-81
2023/08/07 12:08:38;;;;;;;12.10;2.80;;;17.30;99.90;;;;;;5017445;28;20037;-81
2023/08/07 12:11:09;;;;;;;7.60;2.28;;;17.40;99.90;;;;;;5030894;28;20435;-81
2023/08/07 12:13:40;;;;;;;7.88;2.40;;;17.40;99.90;;;;;;5032159;28;20052;-80
2023/08/07 12:16:06;;;;;;;7.13;1.80;;;17.40;99.90;;;;;;5018968;28;20628;-81
2023/08/07 12:18:32;;;;;;;7.47;2.08;;;17.40;99.90;;;;;;5033130;28;20056;-80
2023/08/07 12:21:04;;;;;;;8.20;2.17;;;17.40;99.90;;;;;;5031294;28;20406;-80
2023/08/07 12:23:33;;;;;;;6.70;2.22;;;17.40;99.90;;;;;;5030140;28;20044;-80
2023/08/07 12:25:58;;;;;;;9.13;2.28;;;17.30;99.90;;;;;;5012970;28;20069;-80
2023/08/07 12:28:24;;;;;;;9.13;2.42;;;17.20;99.90;;;;;;5021511;28;20073;-81
2023/08/07 12:30:51;;;;;;;8.07;2.08;;;17.10;99.90;;;;;;5011238;28;20049;-81
2023/08/07 12:33:17;;;;;;;8.32;2.08;;;17.10;99.90;;;;;;5031527;28;20042;-81
2023/08/07 12:35:43;;;;;;;8.70;2.63;;;16.80;99.90;;;;;;5024736;28;20038;-81
2023/08/07 12:38:10;;;;;;;6.72;2.25;;;16.90;99.90;;;;;;5028432;28;20139;-88
2023/08/07 12:40:36;;;;;;;8.90;2.33;;;17.00;99.90;;;;;;5002162;28;20041;-90